Time;durP1;ratioP1;P1;durP2;ratioP2;P2;SDS_P1;SDS_P2;PMS_P1;PMS_P2;Temp;Humidity;BMP_temperature;BMP_pressure;BME280_temperature;BME280_humidity;BME280_pressure;Samples;Min_cycle;Max_cycle;Signal;HPM_P1;HPM_P2
2021/11/04 00:01:53;;;;;;;34.48;18.07;;;;;;;0.73;97.58;99734.46;1735897;81;21028;-65
2021/11/04 00:04:24;;;;;;;44.08;21.45;;;;;;;0.81;97.73;99737.28;1755159;81;21037;-67
2021/11/04 00:06:49;;;;;;;40.80;20.00;;;;;;;0.87;97.78;99742.52;1714225;83;23240;-66
2021/11/04 00:09:16;;;;;;;37.33;20.12;;;;;;;0.98;98.53;99755.13;1747383;80;21089;-67
2021/11/04 00:11:43;;;;;;;33.85;18.55;;;;;;;1.14;99.19;99748.05;1710081;83;21080;-66
2021/11/04 00:14:09;;;;;;;36.85;19.65;;;;;;;1.26;99.44;99749.27;1746537;81;20982;-67
2021/11/04 00:16:36;;;;;;;43.13;20.57;;;;;;;1.36;99.58;99739.12;1743548;81;20942;-67
2021/11/04 00:19:03;;;;;;;41.88;21.37;;;;;;;1.43;99.67;99740.58;1745673;81;21095;-66
2021/11/04 00:21:29;;;;;;;35.78;18.02;;;;;;;1.50;99.85;99739.85;1750273;81;20950;-68
2021/11/04 00:23:56;;;;;;;35.63;18.65;;;;;;;1.58;99.76;99739.95;1693385;83;20948;-66
2021/11/04 00:26:23;;;;;;;32.95;18.52;;;;;;;1.64;99.25;99737.59;1717459;83;20943;-68
2021/11/04 00:28:49;;;;;;;35.25;18.02;;;;;;;1.63;98.61;99740.83;1749431;81;21008;-67
2021/11/04 00:31:16;;;;;;;33.70;17.85;;;;;;;1.61;98.01;99747.56;1708164;83;21435;-67
2021/11/04 00:33:43;;;;;;;31.35;17.95;;;;;;;1.58;97.85;99748.06;1750536;81;20963;-68
2021/11/04 00:36:10;;;;;;;34.95;18.92;;;;;;;1.55;97.91;99750.73;1747172;81;21045;-68
2021/11/04 00:38:36;;;;;;;35.58;19.73;;;;;;;1.53;97.89;99749.35;1719499;83;20956;-68
2021/11/04 00:41:03;;;;;;;30.15;15.65;;;;;;;1.48;97.84;99751.45;1746917;81;21041;-66
2021/11/04 00:43:30;;;;;;;31.30;17.50;;;;;;;1.46;97.90;99754.95;1744398;81;21140;-66
2021/11/04 00:45:56;;;;;;;33.92;17.95;;;;;;;1.43;97.73;99741.92;1715209;82;21167;-67
2021/11/04 00:48:22;;;;;;;36.80;18.35;;;;;;;1.44;97.71;99750.86;1746488;81;21603;-67
2021/11/04 00:50:49;;;;;;;36.05;17.75;;;;;;;1.44;97.72;99750.86;1748498;81;20882;-66
2021/11/04 00:53:15;;;;;;;38.65;18.77;;;;;;;1.43;97.71;99749.22;1748682;81;20867;-65
2021/11/04 00:55:42;;;;;;;36.93;19.05;;;;;;;1.42;97.91;99753.00;1719212;80;21976;-64
2021/11/04 00:58:10;;;;;;;36.05;18.90;;;;;;;1.40;98.07;99750.55;1726305;82;20987;-65
2021/11/04 01:00:37;;;;;;;38.13;18.27;;;;;;;1.40;98.11;99749.72;1708724;81;20993;-65
2021/11/04 01:03:03;;;;;;;31.90;17.95;;;;;;;1.38;98.11;99755.38;1723354;81;21020;-66
2021/11/04 01:05:30;;;;;;;33.13;16.42;;;;;;;1.38;98.06;99747.80;1736582;81;21589;-65
2021/11/04 01:07:57;;;;;;;28.27;15.90;;;;;;;1.38;98.08;99745.09;1743387;81;21146;-66
2021/11/04 01:10:27;;;;;;;34.08;15.72;;;;;;;1.39;98.27;99746.73;1751642;81;20852;-65
2021/11/04 01:12:54;;;;;;;32.15;16.93;;;;;;;1.40;98.43;99749.72;1751298;81;20895;-68
2021/11/04 01:15:20;;;;;;;28.30;14.43;;;;;;;1.42;98.67;99754.34;1729583;81;21014;-65
2021/11/04 01:17:47;;;;;;;30.48;16.82;;;;;;;1.41;98.66;99752.71;1729938;81;21435;-65
2021/11/04 01:20:14;;;;;;;26.77;15.58;;;;;;;1.39;98.79;99753.50;1738744;82;21116;-70
2021/11/04 01:22:40;;;;;;;24.67;14.55;;;;;;;1.38;98.89;99752.68;1724832;82;21685;-72
2021/11/04 01:25:07;;;;;;;30.35;15.90;;;;;;;1.39;98.82;99760.26;1731952;82;20984;-74
2021/11/04 01:27:34;;;;;;;27.85;16.05;;;;;;;1.40;98.92;99764.60;1724885;81;21506;-73
2021/11/04 01:30:04;;;;;;;25.27;14.75;;;;;;;1.41;98.96;99763.00;1726416;81;21007;-72
2021/11/04 01:32:31;;;;;;;28.87;14.55;;;;;;;1.46;99.11;99764.95;1732041;82;21849;-75
2021/11/04 01:34:57;;;;;;;27.70;15.48;;;;;;;1.49;99.25;99769.86;1732049;81;20853;-71
2021/11/04 01:37:24;;;;;;;24.98;14.07;;;;;;;1.52;99.41;99754.48;1708209;80;20908;-72
2021/11/04 01:39:50;;;;;;;31.95;15.72;;;;;;;1.55;99.53;99752.62;1742560;82;20962;-69
2021/11/04 01:42:19;;;;;;;32.17;16.07;;;;;;;1.56;99.48;99756.97;1731294;81;20932;-67
2021/11/04 01:44:46;;;;;;;28.35;14.07;;;;;;;1.58;99.86;99758.36;1694196;83;21068;-67
2021/11/04 01:47:12;;;;;;;29.55;15.85;;;;;;;1.64;99.99;99764.65;1718543;81;20999;-69
2021/11/04 01:49:41;;;;;;;27.85;13.95;;;;;;;1.66;99.93;99765.22;1713965;82;20957;-67
2021/11/04 01:52:09;;;;;;;30.62;15.58;;;;;;;1.71;100.00;99769.34;1733771;81;21590;-68
2021/11/04 01:54:36;;;;;;;26.77;13.83;;;;;;;1.75;99.96;99770.44;1725628;81;21415;-70
2021/11/04 01:57:03;;;;;;;28.17;14.83;;;;;;;1.79;99.96;99768.05;1731795;81;21080;-71
2021/11/04 01:59:29;;;;;;;25.17;14.93;;;;;;;1.78;99.73;99761.81;1739768;81;21017;-84
2021/11/04 02:02:09;;;;;;;29.07;15.45;;;;;;;1.81;100.00;99769.43;1739388;80;20891;-79
2021/11/04 02:04:47;;;;;;;23.83;14.80;;;;;;;1.86;100.00;99769.49;1741380;80;20904;-88
2021/11/04 02:07:56;;;;;;;30.75;15.48;;;;;;;1.93;100.00;99774.71;1716359;81;20983;-77
2021/11/04 02:10:42;;;;;;;32.50;16.35;;;;;;;2.03;100.00;99766.70;1738684;82;21108;-88
2021/11/04 02:13:32;;;;;;;38.83;19.10;;;;;;;2.18;100.00;99764.70;1719545;82;21083;-79
2021/11/04 02:16:01;;;;;;;35.52;18.40;;;;;;;2.26;100.00;99769.12;1744713;81;20924;-70
2021/11/04 02:18:30;;;;;;;34.90;19.17;;;;;;;2.41;100.00;99767.06;1734480;81;21106;-70
2021/11/04 02:21:17;;;;;;;34.48;18.45;;;;;;;2.59;100.00;99768.58;1716846;82;20904;-68
2021/11/04 02:24:01;;;;;;;34.80;18.27;;;;;;;2.78;100.00;99777.15;1741825;82;21105;-70
2021/11/04 02:26:28;;;;;;;34.25;17.85;;;;;;;3.27;100.00;99771.78;1740872;82;20945;-70
2021/11/04 02:28:54;;;;;;;38.28;19.07;;;;;;;3.27;100.00;99771.78;1735732;81;21024;-69
2021/11/04 02:31:21;;;;;;;35.80;18.37;;;;;;;3.44;100.00;99784.36;1712107;81;21506;-68
2021/11/04 02:33:47;;;;;;;38.42;19.90;;;;;;;3.55;100.00;99781.95;1674825;82;20984;-68
2021/11/04 02:36:14;;;;;;;33.78;18.65;;;;;;;3.86;100.00;99791.05;1727768;81;21650;-68
2021/11/04 02:38:41;;;;;;;34.98;20.50;;;;;;;3.86;100.00;99791.05;1700865;82;20999;-69
2021/11/04 02:41:07;;;;;;;34.35;19.07;;;;;;;3.98;100.00;99797.90;1746491;81;20957;-68
2021/11/04 02:43:34;;;;;;;35.95;19.65;;;;;;;4.18;100.00;99793.05;1732831;80;21724;-68
2021/11/04 02:46:01;;;;;;;33.78;17.77;;;;;;;4.18;100.00;99793.05;1723251;81;20942;-68
2021/11/04 02:48:28;;;;;;;29.42;16.75;;;;;;;4.26;100.00;99797.14;1730251;81;21448;-68
2021/11/04 02:50:54;;;;;;;29.35;17.02;;;;;;;4.32;100.00;99794.71;1731321;80;21061;-68
2021/11/04 02:53:24;;;;;;;31.68;17.65;;;;;;;4.39;100.00;99800.70;1737502;81;21462;-69
2021/11/04 02:55:51;;;;;;;31.12;18.02;;;;;;;4.44;100.00;99808.88;1748485;81;20991;-70
2021/11/04 02:58:18;;;;;;;34.78;18.07;;;;;;;4.49;100.00;99812.96;1733680;81;20992;-69
2021/11/04 03:00:49;;;;;;;29.15;16.57;;;;;;;4.57;100.00;99809.72;1744225;81;21941;-69
2021/11/04 03:03:15;;;;;;;36.35;17.77;;;;;;;4.63;100.00;99813.23;1729497;82;20932;-69
2021/11/04 03:05:43;;;;;;;29.82;16.80;;;;;;;4.68;100.00;99816.50;1740161;81;20935;-69
2021/11/04 03:08:09;;;;;;;30.70;17.67;;;;;;;4.76;100.00;99822.22;1715220;83;21427;-69
2021/11/04 03:10:37;;;;;;;30.40;17.25;;;;;;;4.76;100.00;99822.22;1704153;83;21402;-69
2021/11/04 03:13:04;;;;;;;33.75;18.20;;;;;;;4.82;100.00;99833.37;1744661;81;21135;-69
2021/11/04 03:15:41;;;;;;;32.98;17.67;;;;;;;4.83;100.00;99839.09;1746734;81;20982;-69
2021/11/04 03:18:08;;;;;;;28.75;17.05;;;;;;;4.86;100.00;99838.55;1691130;82;21435;-69
2021/11/04 03:20:35;;;;;;;33.28;18.50;;;;;;;4.89;100.00;99849.44;1714703;83;20912;-69
2021/11/04 03:23:04;;;;;;;33.25;18.20;;;;;;;4.92;100.00;99848.34;1716845;83;21098;-70
2021/11/04 03:25:31;;;;;;;31.80;18.80;;;;;;;4.94;100.00;99848.08;1716975;83;21949;-70
2021/11/04 03:27:57;;;;;;;33.15;18.92;;;;;;;4.98;100.00;99839.64;1717120;83;21436;-70
2021/11/04 03:30:26;;;;;;;31.73;18.30;;;;;;;5.01;100.00;99839.10;1729446;81;20919;-71
2021/11/04 03:32:57;;;;;;;31.20;19.00;;;;;;;5.05;100.00;99828.49;1743261;80;20998;-69
2021/11/04 03:35:25;;;;;;;31.93;19.42;;;;;;;5.07;100.00;99824.95;1745647;81;21429;-70
2021/11/04 03:37:51;;;;;;;33.48;18.02;;;;;;;5.10;100.00;99814.89;1749956;81;21771;-69
2021/11/04 03:40:18;;;;;;;32.33;18.77;;;;;;;5.12;100.00;99808.08;1736891;81;20910;-71
2021/11/04 03:42:44;;;;;;;33.23;19.65;;;;;;;5.15;100.00;99804.00;1726083;80;21120;-71
2021/11/04 03:45:13;;;;;;;36.88;19.60;;;;;;;5.16;100.00;99804.27;1745941;81;21051;-71
2021/11/04 03:47:39;;;;;;;31.20;18.52;;;;;;;5.16;100.00;99804.27;1746197;80;20986;-70
2021/11/04 03:50:06;;;;;;;33.20;19.82;;;;;;;5.11;100.00;99806.45;1750251;81;21075;-70
2021/11/04 03:52:33;;;;;;;33.60;20.23;;;;;;;5.11;100.00;99809.72;1749731;81;20930;-70
2021/11/04 03:54:59;;;;;;;32.48;19.60;;;;;;;5.08;100.00;99808.90;1684515;83;20951;-70
2021/11/04 03:57:26;;;;;;;35.92;18.85;;;;;;;5.05;100.00;99806.18;1661529;83;21573;-69
2021/11/04 03:59:53;;;;;;;32.17;19.80;;;;;;;5.01;100.00;99809.17;1711846;83;21523;-70
2021/11/04 04:02:23;;;;;;;30.50;18.82;;;;;;;4.95;100.00;99802.91;1751660;81;22124;-69
2021/11/04 04:04:57;;;;;;;30.80;18.98;;;;;;;4.92;100.00;99802.64;1722977;81;20989;-68
2021/11/04 04:07:28;;;;;;;33.85;20.20;;;;;;;4.85;100.00;99788.50;1727422;81;20927;-68
2021/11/04 04:09:55;;;;;;;35.73;19.10;;;;;;;4.83;100.00;99796.92;1740109;81;21455;-71
2021/11/04 04:12:22;;;;;;;32.40;18.35;;;;;;;4.79;100.00;99795.84;1746410;82;20978;-71
2021/11/04 04:14:49;;;;;;;30.15;19.15;;;;;;;4.77;100.00;99789.03;1699482;83;21133;-70
2021/11/04 04:17:20;;;;;;;34.53;19.00;;;;;;;4.72;100.00;99780.87;1733317;81;21425;-71
2021/11/04 04:19:48;;;;;;;35.10;20.35;;;;;;;4.70;100.00;99777.61;1681981;83;21060;-71
2021/11/04 04:22:15;;;;;;;34.78;19.05;;;;;;;4.65;100.00;99776.52;1722173;81;21059;-71
2021/11/04 04:24:41;;;;;;;30.45;18.55;;;;;;;4.62;100.00;99782.50;1722313;82;20982;-69
2021/11/04 04:27:08;;;;;;;30.75;17.45;;;;;;;4.60;100.00;99790.14;1748586;81;21519;-71
2021/11/04 04:29:34;;;;;;;31.60;19.05;;;;;;;4.63;100.00;99793.65;1692242;82;20956;-70
2021/11/04 04:32:01;;;;;;;33.30;18.70;;;;;;;4.63;100.00;99799.09;1721890;81;20999;-70
2021/11/04 04:34:27;;;;;;;30.30;19.40;;;;;;;4.63;100.00;99799.09;1685991;83;21025;-69
2021/11/04 04:36:54;;;;;;;29.45;18.42;;;;;;;4.63;100.00;99797.73;1697417;82;21518;-69
2021/11/04 04:39:21;;;;;;;32.38;19.05;;;;;;;4.65;100.00;99790.66;1679154;83;21769;-70
2021/11/04 04:41:47;;;;;;;28.87;17.60;;;;;;;4.67;100.00;99794.47;1686688;83;20869;-70
2021/11/04 04:44:14;;;;;;;29.92;18.42;;;;;;;4.67;100.00;99789.84;1677617;82;21015;-69
2021/11/04 04:46:41;;;;;;;33.18;19.52;;;;;;;4.68;100.00;99785.22;1693874;83;21030;-69
2021/11/04 04:49:08;;;;;;;31.97;19.23;;;;;;;4.71;100.00;99773.27;1745928;81;21514;-69
2021/11/04 04:51:35;;;;;;;31.23;18.82;;;;;;;4.71;100.00;99771.08;1740246;80;21144;-69
2021/11/04 04:54:02;;;;;;;35.50;19.82;;;;;;;4.71;100.00;99771.08;1740168;81;21021;-66
2021/11/04 04:56:29;;;;;;;33.33;19.30;;;;;;;4.72;100.00;99770.81;1747248;81;20955;-73
2021/11/04 04:58:56;;;;;;;36.63;19.52;;;;;;;4.65;100.00;99777.88;1744824;81;20995;-70
2021/11/04 05:01:23;;;;;;;32.42;18.52;;;;;;;4.65;100.00;99777.88;1744919;80;20906;-74
2021/11/04 05:03:49;;;;;;;29.55;17.85;;;;;;;4.62;100.00;99771.63;1731851;81;21060;-62
2021/11/04 05:06:16;;;;;;;34.85;20.25;;;;;;;4.59;100.00;99761.32;1741276;80;21662;-65
2021/11/04 05:08:44;;;;;;;32.63;18.50;;;;;;;4.56;100.00;99767.30;1720835;81;20994;-64
2021/11/04 05:11:11;;;;;;;34.13;19.20;;;;;;;4.57;100.00;99769.47;1732235;80;21074;-63
2021/11/04 05:13:37;;;;;;;31.35;19.30;;;;;;;4.57;100.00;99774.37;1709597;82;20896;-65
2021/11/04 05:16:05;;;;;;;34.20;19.50;;;;;;;4.59;100.00;99772.19;1715967;83;21193;-65
2021/11/04 05:18:33;;;;;;;34.15;18.25;;;;;;;4.65;100.00;99772.44;1716783;83;21494;-67
2021/11/04 05:20:59;;;;;;;36.42;20.02;;;;;;;4.65;100.00;99772.44;1716929;83;20932;-64
2021/11/04 05:23:26;;;;;;;36.80;19.37;;;;;;;4.73;100.00;99776.52;1716804;83;21486;-69
2021/11/04 05:25:54;;;;;;;33.13;19.77;;;;;;;4.85;100.00;99779.80;1716877;83;20932;-69
2021/11/04 05:28:21;;;;;;;40.80;19.95;;;;;;;4.85;100.00;99779.80;1716977;83;21150;-70
2021/11/04 05:30:48;;;;;;;38.98;21.30;;;;;;;4.89;100.00;99766.46;1717044;83;20976;-65
2021/11/04 05:33:15;;;;;;;37.23;21.07;;;;;;;4.98;100.00;99768.91;1716615;83;21048;-68
2021/11/04 05:35:41;;;;;;;36.05;19.92;;;;;;;5.03;100.00;99772.17;1717083;83;21011;-66
2021/11/04 05:38:08;;;;;;;33.50;20.37;;;;;;;5.07;100.00;99771.34;1717196;83;21414;-63
2021/11/04 05:40:36;;;;;;;32.25;19.00;;;;;;;5.17;100.00;99780.05;1716982;83;21543;-63
2021/11/04 05:43:03;;;;;;;30.90;20.25;;;;;;;5.17;100.00;99780.05;1716737;83;20896;-63
2021/11/04 05:45:30;;;;;;;36.25;21.25;;;;;;;5.26;100.00;99772.92;1735037;81;21687;-63
2021/11/04 05:47:57;;;;;;;36.38;20.35;;;;;;;5.26;100.00;99772.92;1746102;81;20995;-65
2021/11/04 05:50:25;;;;;;;36.73;22.62;;;;;;;5.35;100.00;99781.34;1746758;81;21411;-66
2021/11/04 05:52:52;;;;;;;33.53;19.65;;;;;;;5.44;100.00;99787.31;1745861;81;21122;-68
2021/11/04 05:55:18;;;;;;;35.15;20.45;;;;;;;5.55;100.00;99793.02;1742319;81;21023;-66
2021/11/04 05:57:46;;;;;;;37.40;21.25;;;;;;;5.64;100.00;99799.52;1748151;81;21006;-66
2021/11/04 06:00:14;;;;;;;34.35;20.88;;;;;;;5.75;100.00;99795.41;1754161;80;20966;-65
2021/11/04 06:02:41;;;;;;;36.93;21.33;;;;;;;5.83;100.00;99794.25;1746481;81;21573;-66
2021/11/04 06:05:08;;;;;;;36.40;21.68;;;;;;;5.91;100.00;99785.53;1704457;82;21140;-65
2021/11/04 06:07:34;;;;;;;39.15;22.77;;;;;;;6.01;100.00;99796.94;1715176;82;21007;-65
2021/11/04 06:10:03;;;;;;;38.28;20.52;;;;;;;6.08;100.00;99808.91;1690192;83;20976;-66
2021/11/04 06:12:30;;;;;;;37.42;20.57;;;;;;;6.14;100.00;99813.23;1699018;83;21589;-65
2021/11/04 06:14:59;;;;;;;34.70;21.07;;;;;;;6.19;100.00;99809.13;1722861;82;21117;-68
2021/11/04 06:17:27;;;;;;;36.28;21.10;;;;;;;6.26;100.00;99824.63;1703096;82;21154;-66
2021/11/04 06:19:54;;;;;;;37.90;21.85;;;;;;;6.31;100.00;99823.79;1715101;82;21035;-69
2021/11/04 06:22:21;;;;;;;40.55;20.52;;;;;;;6.37;100.00;99815.81;1733141;82;21119;-64
2021/11/04 06:24:47;;;;;;;37.13;21.05;;;;;;;6.40;100.00;99818.80;1724841;81;21474;-63
2021/11/04 06:27:14;;;;;;;41.15;21.57;;;;;;;6.45;100.00;99816.05;1713808;81;21197;-67
2021/11/04 06:29:41;;;;;;;34.30;20.23;;;;;;;6.50;100.00;99822.02;1724719;79;21185;-65
2021/11/04 06:32:08;;;;;;;40.23;23.50;;;;;;;6.55;100.00;99824.72;1721964;82;21097;-64
2021/11/04 06:34:35;;;;;;;39.98;21.52;;;;;;;6.58;100.00;99830.97;1705806;82;21585;-67
2021/11/04 06:37:03;;;;;;;38.48;23.30;;;;;;;6.62;100.00;99837.49;1708760;82;21055;-72
2021/11/04 06:39:29;;;;;;;37.00;22.15;;;;;;;6.67;100.00;99829.83;1710688;82;20938;-67
2021/11/04 06:41:58;;;;;;;42.95;22.13;;;;;;;6.71;100.00;99826.80;1744029;82;20879;-68
2021/11/04 06:44:25;;;;;;;39.05;22.48;;;;;;;6.75;100.00;99817.77;1752309;80;21083;-68
2021/11/04 06:46:51;;;;;;;36.38;21.60;;;;;;;6.79;100.00;99799.72;1748104;81;21137;-67
2021/11/04 06:49:18;;;;;;;46.30;23.30;;;;;;;6.83;100.00;99795.87;1705296;82;21007;-72
2021/11/04 06:51:48;;;;;;;35.63;20.17;;;;;;;6.87;100.00;99790.93;1743197;81;21010;-69
2021/11/04 06:54:17;;;;;;;41.50;23.45;;;;;;;6.94;100.00;99783.75;1747841;81;21071;-69
2021/11/04 06:56:47;;;;;;;40.92;23.35;;;;;;;7.00;100.00;99782.61;1719896;81;21561;-69
2021/11/04 06:59:24;;;;;;;38.10;22.00;;;;;;;7.04;100.00;99783.66;1739994;81;21671;-68
2021/11/04 07:01:57;;;;;;;38.53;20.92;;;;;;;7.09;100.00;99782.81;1719491;81;21177;-69
2021/11/04 07:04:37;;;;;;;38.75;21.87;;;;;;;7.13;100.00;99781.95;1727867;82;21516;-75
2021/11/04 07:07:11;;;;;;;40.80;22.10;;;;;;;7.18;100.00;99780.53;1729787;82;21123;-72
2021/11/04 07:09:39;;;;;;;39.18;21.77;;;;;;;7.21;100.00;99771.77;1729689;82;21018;-72
2021/11/04 07:12:12;;;;;;;36.63;21.30;;;;;;;7.26;100.00;99768.17;1709840;82;22049;-71
2021/11/04 07:14:41;;;;;;;38.13;21.30;;;;;;;7.32;100.00;99765.66;1708708;81;21072;-70
2021/11/04 07:17:13;;;;;;;45.95;23.60;;;;;;;7.39;100.00;99763.40;1694350;83;21506;-70
2021/11/04 07:19:42;;;;;;;;;;;;;;;7.47;100.00;99763.32;1730219;80;21009;-73
2021/11/04 07:22:43;;;;;;;39.38;22.55;;;;;;;7.52;100.00;99765.97;1673719;83;20142;-72
2021/11/04 07:25:13;;;;;;;40.15;22.85;;;;;;;7.57;100.00;99757.72;1662901;84;21087;-72
2021/11/04 07:27:59;;;;;;;37.55;21.97;;;;;;;7.68;100.00;99759.23;1638564;85;21569;-74
2021/11/04 07:30:28;;;;;;;42.85;21.20;;;;;;;7.73;100.00;99764.63;1658395;83;21046;-73
2021/11/04 07:33:05;;;;;;;40.58;23.47;;;;;;;7.77;100.00;99769.78;1709139;82;21220;-72
2021/11/04 07:35:37;;;;;;;43.92;26.02;;;;;;;7.82;100.00;99772.45;1729104;80;21034;-71
2021/11/04 07:38:10;;;;;;;45.00;27.67;;;;;;;7.87;100.00;99777.86;1733068;81;20982;-70
2021/11/04 07:40:37;;;;;;;44.03;27.07;;;;;;;7.91;100.00;99782.19;1716857;82;21046;-73
2021/11/04 07:43:05;;;;;;;38.85;24.40;;;;;;;7.95;100.00;99777.77;1709320;83;21039;-70
2021/11/04 07:45:32;;;;;;;43.65;26.97;;;;;;;7.99;100.00;99778.80;1722264;82;21138;-73
2021/11/04 07:48:00;;;;;;;38.00;22.85;;;;;;;8.00;100.00;99776.33;1738557;82;21026;-72
2021/11/04 07:50:29;;;;;;;37.13;21.95;;;;;;;8.01;100.00;99771.13;1775776;80;21026;-70
2021/11/04 07:52:58;;;;;;;36.13;21.60;;;;;;;8.05;100.00;99764.52;1738692;80;20983;-70
2021/11/04 07:55:24;;;;;;;36.65;22.05;;;;;;;8.09;100.00;99759.50;1728253;81;21042;-72
2021/11/04 07:57:51;;;;;;;39.63;22.58;;;;;;;8.12;100.00;99756.73;1725604;80;21583;-75
2021/11/04 08:00:20;;;;;;;37.80;22.17;;;;;;;8.13;100.00;99755.63;1722792;80;21138;-74
2021/11/04 08:02:47;;;;;;;40.40;23.20;;;;;;;8.16;100.00;99754.48;1711114;80;21068;-73
2021/11/04 08:05:17;;;;;;;42.05;25.97;;;;;;;8.18;100.00;99752.83;1723936;81;21082;-83
2021/11/04 08:07:44;;;;;;;42.10;24.55;;;;;;;8.25;100.00;99760.11;1726755;82;21073;-84
2021/11/04 08:10:14;;;;;;;41.08;22.73;;;;;;;8.35;100.00;99750.42;1728436;82;21667;-82
2021/11/04 08:12:41;;;;;;;39.73;23.05;;;;;;;8.50;100.00;99752.94;1723690;81;21088;-78
2021/11/04 08:15:10;;;;;;;36.95;21.17;;;;;;;8.76;100.00;99749.77;1714028;82;20983;-74
2021/11/04 08:17:37;;;;;;;37.48;22.95;;;;;;;9.06;100.00;99757.48;1717659;82;20960;-73
2021/11/04 08:20:06;;;;;;;35.85;21.45;;;;;;;9.30;100.00;99757.86;1714311;82;21089;-76
2021/11/04 08:22:34;;;;;;;37.98;23.77;;;;;;;9.41;100.00;99762.85;1736428;81;21076;-78
2021/11/04 08:25:04;;;;;;;40.35;24.60;;;;;;;9.48;100.00;99770.12;1720956;81;21074;-80
2021/11/04 08:27:32;;;;;;;45.90;26.07;;;;;;;9.50;100.00;99769.26;1725503;82;21015;-74
2021/11/04 08:29:59;;;;;;;43.35;25.25;;;;;;;9.53;100.00;99769.20;1731787;81;21591;-76
2021/11/04 08:32:26;;;;;;;48.25;28.85;;;;;;;9.56;100.00;99765.30;1722154;81;21055;-72
2021/11/04 08:34:52;;;;;;;63.40;33.95;;;;;;;9.64;100.00;99776.12;1732132;81;21089;-69
2021/11/04 08:37:18;;;;;;;68.95;40.33;;;;;;;9.76;100.00;99770.95;1713960;82;21097;-79
2021/11/04 08:39:46;;;;;;;62.23;38.15;;;;;;;9.92;100.00;99766.75;1712001;81;21167;-74
2021/11/04 08:42:15;;;;;;;53.23;32.10;;;;;;;10.14;100.00;99771.51;1691869;83;21517;-73
2021/11/04 08:44:41;;;;;;;63.15;36.63;;;;;;;10.29;100.00;99771.77;1686584;83;21059;-74
2021/11/04 08:47:09;;;;;;;59.90;34.00;;;;;;;10.41;100.00;99773.95;1710610;83;21194;-74
2021/11/04 08:49:35;;;;;;;65.25;38.40;;;;;;;10.51;100.00;99762.17;1693940;81;21101;-73
2021/11/04 08:52:03;;;;;;;54.38;29.52;;;;;;;10.63;100.00;99758.88;1698745;81;21197;-72
2021/11/04 08:54:29;;;;;;;51.98;33.73;;;;;;;10.78;100.00;99764.58;1746524;81;20971;-72
2021/11/04 08:56:56;;;;;;;49.88;27.85;;;;;;;11.03;100.00;99766.67;1744354;81;20916;-74
2021/11/04 08:59:22;;;;;;;45.88;24.92;;;;;;;11.44;100.00;99762.87;1750149;79;21127;-80
2021/11/04 09:01:49;;;;;;;41.63;25.92;;;;;;;11.89;100.00;99749.22;1744794;80;20925;-71
2021/11/04 09:04:16;;;;;;;59.70;33.05;;;;;;;12.37;99.90;99739.25;1738046;80;21158;-70
2021/11/04 09:06:43;;;;;;;65.83;37.10;;;;;;;12.97;95.63;99733.70;1739653;81;20958;-73
2021/11/04 09:09:11;;;;;;;55.58;38.80;;;;;;;13.43;90.43;99742.58;1733882;81;21069;-75
2021/11/04 09:11:38;;;;;;;65.30;45.20;;;;;;;13.69;87.14;99743.05;1733448;81;21346;-74
2021/11/04 09:14:05;;;;;;;67.75;38.53;;;;;;;13.77;85.98;99743.59;1743060;80;21085;-73
2021/11/04 09:16:35;;;;;;;59.48;30.55;;;;;;;13.66;86.42;99739.01;1753414;81;21034;-70
2021/11/04 09:19:02;;;;;;;51.73;29.27;;;;;;;13.60;85.92;99739.52;1744526;81;21490;-70
2021/11/04 09:21:29;;;;;;;60.33;32.10;;;;;;;13.48;87.54;99736.08;1744671;81;20924;-74
2021/11/04 09:23:56;;;;;;;68.50;37.88;;;;;;;13.37;86.17;99727.35;1698458;82;21046;-72
2021/11/04 09:26:23;;;;;;;60.92;29.98;;;;;;;13.25;87.14;99720.94;1740947;81;21117;-73
2021/11/04 09:28:50;;;;;;;63.00;33.10;;;;;;;13.31;87.78;99720.97;1742275;80;21066;-74
2021/11/04 09:31:16;;;;;;;63.25;32.95;;;;;;;13.59;87.43;99721.36;1740289;81;21681;-74
2021/11/04 09:33:44;;;;;;;59.73;32.67;;;;;;;13.82;83.71;99708.34;1719080;82;21028;-75
2021/11/04 09:36:11;;;;;;;63.65;28.98;;;;;;;14.09;82.93;99703.44;1738547;82;21111;-72
2021/11/04 09:38:38;;;;;;;72.08;33.10;;;;;;;14.26;82.24;99709.41;1739074;81;20966;-70
2021/11/04 09:41:05;;;;;;;45.28;25.80;;;;;;;14.29;81.59;99705.98;1741615;81;21708;-69
2021/11/04 09:43:32;;;;;;;55.78;29.90;;;;;;;14.23;80.67;99708.13;1715792;81;21085;-70
2021/11/04 09:46:01;;;;;;;57.55;28.10;;;;;;;14.24;81.46;99732.41;1716788;81;21046;-70
2021/11/04 09:48:34;;;;;;;49.33;28.35;;;;;;;14.30;80.21;99713.13;1711536;81;21135;-71
2021/11/04 09:51:01;;;;;;;56.08;28.45;;;;;;;14.21;80.03;99702.95;1712908;83;20963;-76
2021/11/04 09:53:28;;;;;;;48.83;27.37;;;;;;;14.20;81.92;99693.05;1703170;83;21122;-73
2021/11/04 09:55:55;;;;;;;41.28;25.43;;;;;;;14.32;81.18;99702.55;1710778;81;21041;-72
2021/11/04 09:58:22;;;;;;;47.98;27.00;;;;;;;14.23;80.02;99687.42;1721017;81;21131;-72
2021/11/04 10:00:48;;;;;;;50.38;27.87;;;;;;;13.91;81.13;99688.94;1705567;82;21528;-73
2021/11/04 10:03:15;;;;;;;43.87;26.57;;;;;;;13.60;82.72;99692.06;1713110;83;20877;-73
2021/11/04 10:05:53;;;;;;;45.28;27.02;;;;;;;13.55;83.47;99675.70;1707451;83;20982;-72
2021/11/04 10:08:34;;;;;;;45.52;27.37;;;;;;;13.68;83.90;99670.52;1720277;82;21002;-77
2021/11/04 10:11:11;;;;;;;42.30;26.97;;;;;;;13.83;83.67;99669.14;1709131;81;36931;-72
2021/11/04 10:13:39;;;;;;;46.68;29.02;;;;;;;13.79;83.75;99657.15;1697321;83;21160;-72
2021/11/04 10:16:09;;;;;;;43.30;26.27;;;;;;;13.63;83.90;99651.40;1703953;82;20988;-71
2021/11/04 10:18:43;;;;;;;45.85;28.00;;;;;;;13.39;84.59;99663.61;1690236;83;21618;-74
2021/11/04 10:21:10;;;;;;;58.00;27.75;;;;;;;13.11;85.78;99665.41;1706658;82;20983;-75
2021/11/04 10:23:43;;;;;;;56.40;28.38;;;;;;;12.99;87.37;99663.91;1706813;82;20963;-71
2021/11/04 10:26:15;;;;;;;46.42;26.60;;;;;;;12.97;88.38;99652.97;1667435;85;21218;-75
2021/11/04 10:28:44;;;;;;;44.67;25.17;;;;;;;13.18;89.01;99655.28;1699880;83;21004;-75
2021/11/04 10:31:17;;;;;;;44.23;28.07;;;;;;;13.44;88.73;99664.80;1708588;82;21499;-76
2021/11/04 10:33:46;;;;;;;47.33;27.30;;;;;;;13.59;86.99;99647.69;1712581;82;21044;-76
2021/11/04 10:36:24;;;;;;;50.30;26.52;;;;;;;13.79;87.21;99645.54;1696461;82;20912;-72
2021/11/04 10:38:57;;;;;;;38.70;23.95;;;;;;;14.27;85.67;99647.52;1703178;82;21117;-75
2021/11/04 10:41:39;;;;;;;46.50;25.45;;;;;;;14.73;81.51;99639.55;1711684;83;20991;-71
2021/11/04 10:44:15;;;;;;;40.12;22.32;;;;;;;15.05;79.80;99637.87;1668577;83;21028;-72
2021/11/04 10:46:47;;;;;;;51.13;23.57;;;;;;;15.48;78.11;99635.95;1686786;83;21016;-75
2021/11/04 10:49:14;;;;;;;45.73;24.52;;;;;;;16.01;73.85;99629.90;1683376;83;20943;-76
2021/11/04 10:51:42;;;;;;;30.32;21.65;;;;;;;16.46;72.94;99618.53;1706431;83;21639;-75
2021/11/04 10:54:15;;;;;;;37.28;21.55;;;;;;;16.72;70.78;99613.35;1697709;83;20948;-71
2021/11/04 10:56:45;;;;;;;26.48;18.65;;;;;;;16.61;69.33;99612.22;1701346;83;21445;-74
2021/11/04 10:59:17;;;;;;;25.68;17.45;;;;;;;16.30;68.85;99593.55;1702306;83;21055;-71
2021/11/04 11:01:45;;;;;;;25.40;15.70;;;;;;;16.12;67.78;99600.56;1719036;82;21004;-74
2021/11/04 11:04:17;;;;;;;21.12;15.78;;;;;;;15.94;67.75;99613.88;1714875;82;21129;-74
2021/11/04 11:06:53;;;;;;;22.73;16.13;;;;;;;15.85;68.06;99615.39;1735439;81;21109;-76
2021/11/04 11:09:24;;;;;;;21.80;15.45;;;;;;;15.81;68.26;99610.33;1691844;82;21240;-76
2021/11/04 11:11:53;;;;;;;24.20;14.45;;;;;;;15.58;68.15;99613.38;1739867;81;21588;-76
2021/11/04 11:14:22;;;;;;;25.02;14.55;;;;;;;15.25;68.67;99619.58;1745235;80;21104;-71
2021/11/04 11:16:53;;;;;;;26.20;15.78;;;;;;;14.83;69.87;99609.52;1736737;81;22158;-73
2021/11/04 11:19:27;;;;;;;23.15;14.28;;;;;;;14.53;70.97;99626.01;1745760;81;20953;-71
2021/11/04 11:21:54;;;;;;;20.62;14.58;;;;;;;14.24;72.30;99624.73;1713795;83;21042;-77
2021/11/04 11:24:38;;;;;;;21.35;14.15;;;;;;;14.14;73.07;99628.70;1696089;83;21119;-78
2021/11/04 11:27:09;;;;;;;20.32;13.30;;;;;;;14.21;72.83;99615.17;1699953;82;21106;-75